Iowa Falls, Iowa
Current Conditions -  °F | °C
As of 7:35 AM on Friday 28 Nov 2014 (Local Time) from KIFA Reporting Station
Clear Clear  
Wind Chill: -17°   Ceiling: Unl
Heat Index: -9°   Visibility: 7mi
Dew Point: -11°   Wind: 14mph
Humidity: 83%   Direction: 130°SE
Pressure: 29.99"   Gusts: NA
Location:  42.52°N, 93.26°W
Report Text: KIFA 281335Z AUTO 13012KT 7SM CLR M09/M11 A2999 RMK AO2 T10881112
Loading
Personal Weather Stations






























Interactive Weather Map New forecast layout! Learn more

10-Day Weather Forecast

Advertisements
Track Severe Weather on mobile